Portada
METAR-TAF:

METAR-TAF

Aeroports :

Buriram, Tailàndia

latitud: 15-13-46N, longitud: 103-15-04E, altitud: 180 m

Observació

L'informe es va fer fa 46 minuts, a les 07:00 UTC
Vent 3 kt amb direcció variable
Temperatura 36°C
Humitat 47%
Pressió 1008 hPa
Visibilitat 10 km o més
Núvols disperses a una alçada de 3500 ft

METAR: VTUO 080700Z VRB03KT 9999 SCT035 36/23 Q1008 NOSIG

Hora: 14:46 (07:46 UTC)

Pronòstic

L'informe es va fer fa 2 hores i 46 minuts, a les 05:00 UTC
Pronòstic vàlid del 08 a les 06 UTC al 09 a les 06 UTC
Vent 5 kt del Sud/Sud-Oest
Visibilitat: 9000 m
Escasses núvols a una alçada de 3000 ft

TAF: VTUO 080500Z 0806/0906 20005KT 9000 FEW030

Observacions i pronòstics meteorològics de més de 4000 aeroports (METAR i TAF).

Les estacions disponibles són els punts grocs i vermells al mapa.

Posi el ratolí al punt desitjat per veure el nom de l'estació.

Feu clic per veure les observacions i els pronòstics meteorològics.

Per canviar el mapa: feu clic els botons verds amb una creu de color negre per apropar; al botó verd amb un guió per allunyar la imatge; o en les fletxes verdes per a mapes adjacents.


METAR-TAF: